Time;durP1;ratioP1;P1;durP2;ratioP2;P2;SDS_P1;SDS_P2;PMS_P1;PMS_P2;Temp;Humidity;BMP_temperature;BMP_pressure;BME280_temperature;BME280_humidity;BME280_pressure;Samples;Min_cycle;Max_cycle;Signal;HPM_P1;HPM_P2
2022/05/12 00:00:41;;;;;;;9.20;8.90;;;18.20;99.90;;;;;;5000427;28;20325;-84
2022/05/12 00:03:12;;;;;;;9.30;9.00;;;18.20;99.90;;;;;;4998122;28;20256;-87
2022/05/12 00:05:40;;;;;;;9.40;9.10;;;18.20;99.90;;;;;;4998255;28;20241;-87
2022/05/12 00:08:17;;;;;;;9.55;9.25;;;18.20;99.90;;;;;;4997962;28;20265;-87
2022/05/12 00:10:48;;;;;;;9.52;9.23;;;18.20;99.90;;;;;;4997954;28;20288;-88
2022/05/12 00:13:16;;;;;;;9.70;9.40;;;18.20;99.90;;;;;;4997679;28;20244;-88
2022/05/12 00:15:46;;;;;;;9.10;8.85;;;18.20;99.90;;;;;;4997581;28;20241;-87
2022/05/12 00:18:17;;;;;;;9.10;8.88;;;18.20;99.90;;;;;;4998891;28;20260;-88
2022/05/12 00:20:45;;;;;;;9.10;8.90;;;18.10;99.90;;;;;;4997953;28;20314;-88
2022/05/12 00:23:23;;;;;;;9.23;8.98;;;18.10;99.90;;;;;;5000979;28;20229;-87
2022/05/12 00:25:52;;;;;;;9.05;8.85;;;18.10;99.90;;;;;;5000917;28;20356;-88
2022/05/12 00:31:11;;;;;;;9.55;9.25;;;18.10;99.90;;;;;;5001058;28;20229;-88
2022/05/12 00:33:39;;;;;;;9.52;9.23;;;18.00;99.90;;;;;;5001412;28;20256;-88
2022/05/12 00:36:07;;;;;;;9.50;9.20;;;18.00;99.90;;;;;;5001076;28;20236;-87
2022/05/12 00:38:46;;;;;;;9.70;9.40;;;18.00;99.90;;;;;;5001743;28;20228;-87
2022/05/12 00:41:15;;;;;;;9.43;9.13;;;18.00;99.90;;;;;;5001184;28;20237;-87
2022/05/12 00:43:48;;;;;;;9.68;9.38;;;17.90;99.90;;;;;;5001136;28;20225;-87
2022/05/12 00:46:24;;;;;;;9.73;9.43;;;17.90;99.90;;;;;;5000981;28;20233;-87
2022/05/12 00:48:54;;;;;;;9.68;9.38;;;17.90;99.90;;;;;;5000957;28;20236;-87
2022/05/12 00:51:32;;;;;;;9.70;9.40;;;17.90;99.90;;;;;;5000556;28;20225;-87
2022/05/12 00:54:09;;;;;;;9.80;9.50;;;17.90;99.90;;;;;;5000831;28;20312;-87
2022/05/12 00:56:40;;;;;;;9.75;9.45;;;18.00;99.90;;;;;;5000276;28;20245;-87
2022/05/12 00:59:16;;;;;;;10.10;9.80;;;18.00;99.90;;;;;;5000397;28;20241;-88
2022/05/12 01:01:47;;;;;;;9.90;9.60;;;18.10;99.90;;;;;;5001157;28;20224;-87
2022/05/12 01:04:16;;;;;;;10.10;9.80;;;18.10;99.90;;;;;;5001052;28;20235;-88
2022/05/12 01:06:45;;;;;;;10.07;9.77;;;18.20;99.90;;;;;;5000473;28;20229;-88
2022/05/12 01:09:24;;;;;;;10.00;9.70;;;18.30;99.90;;;;;;5000242;28;20288;-88
2022/05/12 01:11:54;;;;;;;10.00;9.70;;;18.40;99.90;;;;;;5000582;28;20319;-87
2022/05/12 01:14:30;;;;;;;9.93;9.63;;;18.40;99.90;;;;;;5000341;28;20264;-89
2022/05/12 01:17:02;;;;;;;10.00;9.70;;;18.50;99.90;;;;;;5000454;28;20243;-87
2022/05/12 01:22:42;;;;;;;9.70;9.40;;;18.50;99.90;;;;;;5000224;28;20311;-87
2022/05/12 01:25:21;;;;;;;9.60;9.30;;;18.50;99.90;;;;;;5000638;28;20283;-87
2022/05/12 01:27:49;;;;;;;10.00;9.70;;;18.50;99.90;;;;;;5022540;22;20326;-76
2022/05/12 01:30:22;;;;;;;9.70;9.40;;;18.30;99.90;;;;;;4995525;28;20262;-76
2022/05/12 01:32:50;;;;;;;9.38;9.07;;;18.30;99.90;;;;;;4978018;28;20323;-76
2022/05/12 01:35:21;;;;;;;9.40;9.10;;;18.30;99.90;;;;;;4979075;28;20256;-75
2022/05/12 01:37:49;;;;;;;9.20;8.90;;;18.20;99.90;;;;;;4978188;28;20292;-76
2022/05/12 01:40:22;;;;;;;9.20;8.90;;;18.20;99.90;;;;;;4978680;28;20308;-75
2022/05/12 01:42:50;;;;;;;9.60;9.30;;;18.10;99.90;;;;;;4977982;28;20230;-76
2022/05/12 01:45:19;;;;;;;9.40;9.10;;;18.10;99.90;;;;;;4996402;28;20241;-75
2022/05/12 01:47:50;;;;;;;9.30;9.00;;;18.10;99.90;;;;;;4998291;28;20245;-76
2022/05/12 01:50:18;;;;;;;9.30;9.00;;;18.10;99.90;;;;;;4997948;28;20325;-76
2022/05/12 01:52:46;;;;;;;9.05;8.85;;;18.10;99.90;;;;;;4997640;28;20236;-76
2022/05/12 01:55:16;;;;;;;9.05;8.85;;;18.10;99.90;;;;;;4997640;28;20229;-76
2022/05/12 01:57:45;;;;;;;9.23;8.93;;;18.00;99.90;;;;;;4997924;28;20249;-76
2022/05/12 02:00:19;;;;;;;9.30;9.00;;;18.00;99.90;;;;;;4998050;28;20232;-75
2022/05/12 02:02:47;;;;;;;9.60;9.30;;;17.90;99.90;;;;;;4997448;28;20327;-76
2022/05/12 02:05:15;;;;;;;9.15;8.90;;;17.90;99.90;;;;;;4996913;28;20225;-76
2022/05/12 02:07:45;;;;;;;8.90;8.70;;;17.90;99.90;;;;;;4997375;28;20290;-75
2022/05/12 02:10:18;;;;;;;9.43;9.13;;;17.90;99.90;;;;;;4997388;28;20237;-76
2022/05/12 02:12:47;;;;;;;8.98;8.75;;;17.80;99.90;;;;;;4997955;28;20244;-77
2022/05/12 02:15:16;;;;;;;9.70;9.40;;;17.70;99.90;;;;;;4998013;28;20220;-77
2022/05/12 02:17:44;;;;;;;9.60;9.30;;;17.70;99.90;;;;;;4998941;28;20284;-77
2022/05/12 02:20:14;;;;;;;9.40;9.10;;;17.70;99.90;;;;;;4998171;28;20233;-77
2022/05/12 02:22:42;;;;;;;9.50;9.20;;;17.70;99.90;;;;;;4998283;28;20233;-77
2022/05/12 02:25:11;;;;;;;9.70;9.40;;;17.70;99.90;;;;;;4997950;28;20268;-77
2022/05/12 02:27:42;;;;;;;9.40;9.10;;;17.60;99.90;;;;;;4997076;28;20236;-77
2022/05/12 02:30:16;;;;;;;9.40;9.10;;;17.60;99.90;;;;;;4997890;28;20312;-78
2022/05/12 02:32:43;;;;;;;9.20;8.90;;;17.40;99.90;;;;;;4997062;28;20244;-77
2022/05/12 02:35:12;;;;;;;9.20;8.90;;;17.30;99.90;;;;;;4997581;28;20232;-76
2022/05/12 02:37:41;;;;;;;9.35;9.05;;;17.30;99.90;;;;;;4998140;28;20397;-77
2022/05/12 02:40:13;;;;;;;9.68;9.38;;;17.20;99.90;;;;;;4997555;28;20288;-77
2022/05/12 02:42:40;;;;;;;9.82;9.52;;;17.20;99.90;;;;;;4997619;28;20296;-76
2022/05/12 02:45:11;;;;;;;9.48;9.18;;;17.20;99.90;;;;;;4996205;28;20308;-77
2022/05/12 02:47:39;;;;;;;9.50;9.20;;;17.20;99.90;;;;;;4997118;28;20240;-76
2022/05/12 02:50:10;;;;;;;9.52;9.23;;;17.30;99.90;;;;;;4997863;28;20235;-77
2022/05/12 02:52:38;;;;;;;9.48;9.18;;;17.30;99.90;;;;;;4997496;28;20303;-77
2022/05/12 02:55:08;;;;;;;9.77;9.48;;;17.30;99.90;;;;;;4997383;28;20240;-77
2022/05/12 02:57:35;;;;;;;9.32;9.02;;;17.20;99.90;;;;;;4997446;28;20236;-77
2022/05/12 03:00:06;;;;;;;9.77;9.48;;;17.20;99.90;;;;;;4997075;28;20292;-76
2022/05/12 03:02:35;;;;;;;9.82;9.52;;;17.20;99.90;;;;;;4997938;28;20225;-77
2022/05/12 03:05:03;;;;;;;9.77;9.48;;;17.10;99.90;;;;;;4996938;28;20256;-76
2022/05/12 03:07:31;;;;;;;9.60;9.30;;;17.10;99.90;;;;;;4997761;28;20233;-77
2022/05/12 03:09:59;;;;;;;9.60;9.30;;;17.10;99.90;;;;;;4997878;28;20357;-77
2022/05/12 03:12:26;;;;;;;9.45;9.15;;;17.10;99.90;;;;;;4997839;28;20237;-76
2022/05/12 03:14:54;;;;;;;10.55;10.25;;;17.10;99.90;;;;;;4997150;28;20736;-77
2022/05/12 03:17:22;;;;;;;10.45;10.15;;;17.00;99.90;;;;;;4997157;28;20243;-76
2022/05/12 03:19:51;;;;;;;10.38;10.07;;;17.00;99.90;;;;;;4997254;28;20228;-77
2022/05/12 03:22:19;;;;;;;10.50;10.20;;;17.00;99.90;;;;;;4997340;28;20232;-77
2022/05/12 03:24:46;;;;;;;10.60;10.30;;;17.00;99.90;;;;;;4996842;28;20237;-76
2022/05/12 03:27:14;;;;;;;10.40;10.10;;;17.00;99.90;;;;;;4996907;28;20334;-76
2022/05/12 03:29:42;;;;;;;10.60;10.30;;;17.00;99.90;;;;;;4997666;28;20240;-77
2022/05/12 03:32:12;;;;;;;10.57;10.27;;;17.00;99.90;;;;;;4998162;28;20239;-77
2022/05/12 03:34:40;;;;;;;10.90;10.60;;;16.90;99.90;;;;;;4997834;28;20241;-77
2022/05/12 03:37:11;;;;;;;10.60;10.30;;;16.90;99.90;;;;;;5002560;28;20236;-76
2022/05/12 03:39:39;;;;;;;10.40;10.10;;;16.80;99.90;;;;;;5004441;28;20260;-76
2022/05/12 03:42:08;;;;;;;10.50;10.20;;;16.90;99.90;;;;;;5005075;28;20291;-75
2022/05/12 03:44:47;;;;;;;10.85;10.55;;;16.90;99.90;;;;;;5006589;28;20212;-76
2022/05/12 03:47:15;;;;;;;10.27;9.98;;;16.90;99.90;;;;;;5003725;28;20268;-77
2022/05/12 03:49:43;;;;;;;10.40;10.10;;;16.80;99.90;;;;;;5003302;28;20236;-76
2022/05/12 03:52:13;;;;;;;9.90;9.60;;;16.80;99.90;;;;;;5006322;28;20252;-76
2022/05/12 03:54:41;;;;;;;10.00;9.70;;;16.80;99.90;;;;;;5008339;28;20209;-76
2022/05/12 03:57:08;;;;;;;10.50;10.20;;;16.80;99.90;;;;;;5011674;28;20296;-76
2022/05/12 03:59:39;;;;;;;10.45;10.15;;;16.80;99.90;;;;;;5012605;28;20268;-76
2022/05/12 04:02:07;;;;;;;10.32;10.02;;;16.90;99.90;;;;;;5009174;28;20229;-76
2022/05/12 04:04:35;;;;;;;9.95;9.65;;;16.90;99.90;;;;;;5010261;28;20424;-75
2022/05/12 04:07:03;;;;;;;10.15;9.85;;;17.00;99.90;;;;;;5010608;28;20276;-75
2022/05/12 04:09:32;;;;;;;10.10;9.80;;;17.00;99.90;;;;;;5010995;28;20229;-76
2022/05/12 04:12:00;;;;;;;10.10;9.80;;;17.10;99.90;;;;;;5011680;28;20256;-76
2022/05/12 04:14:28;;;;;;;10.20;9.90;;;17.10;99.90;;;;;;5011313;28;20233;-76
2022/05/12 04:16:55;;;;;;;10.43;10.13;;;17.10;99.90;;;;;;5011390;28;20229;-76
2022/05/12 04:19:24;;;;;;;10.00;9.70;;;17.20;99.90;;;;;;5012153;28;20264;-75
2022/05/12 04:21:53;;;;;;;9.43;9.13;;;17.20;99.90;;;;;;5011398;28;20233;-75
2022/05/12 04:24:21;;;;;;;9.98;9.68;;;17.30;99.90;;;;;;5010426;28;20281;-76
2022/05/12 04:26:50;;;;;;;9.90;9.60;;;17.30;99.90;;;;;;5009107;28;20280;-76
2022/05/12 04:29:18;;;;;;;9.52;9.23;;;17.30;99.90;;;;;;5010945;28;20287;-76
2022/05/12 04:31:46;;;;;;;9.95;9.65;;;17.30;99.90;;;;;;5009700;28;20237;-75
2022/05/12 04:36:58;;;;;;;9.60;9.30;;;17.40;99.90;;;;;;5004897;28;20232;-76
2022/05/12 04:39:26;;;;;;;9.60;9.30;;;17.40;99.90;;;;;;5003884;28;20284;-76
2022/05/12 04:41:55;;;;;;;10.00;9.70;;;17.40;99.90;;;;;;4998181;28;20237;-76
2022/05/12 04:44:23;;;;;;;9.63;9.32;;;17.40;99.90;;;;;;4997871;28;20400;-76
2022/05/12 04:46:51;;;;;;;9.80;9.50;;;17.50;99.90;;;;;;4997677;28;20237;-76
2022/05/12 04:49:18;;;;;;;10.00;9.70;;;17.50;99.90;;;;;;4997579;28;20772;-76
2022/05/12 04:51:46;;;;;;;9.90;9.60;;;17.60;99.90;;;;;;4997559;28;20307;-76
2022/05/12 04:54:14;;;;;;;10.20;9.90;;;17.60;99.90;;;;;;4997703;28;20236;-77
2022/05/12 04:56:42;;;;;;;9.75;9.45;;;17.70;99.90;;;;;;4997464;28;20233;-78
2022/05/12 04:59:12;;;;;;;10.13;9.82;;;17.70;99.90;;;;;;4999284;28;20295;-76
2022/05/12 05:01:39;;;;;;;9.63;9.32;;;17.80;99.90;;;;;;4998867;28;20236;-77
2022/05/12 05:04:07;;;;;;;9.50;9.20;;;17.80;99.90;;;;;;4998814;28;20300;-77
2022/05/12 05:06:35;;;;;;;9.43;9.13;;;18.00;99.90;;;;;;4997847;28;20241;-77
2022/05/12 05:09:03;;;;;;;9.50;9.20;;;18.00;99.90;;;;;;4999235;28;20229;-76
2022/05/12 05:11:31;;;;;;;9.82;9.52;;;18.10;99.90;;;;;;4998631;28;20240;-77
2022/05/12 05:13:59;;;;;;;9.95;9.65;;;18.20;99.90;;;;;;4998557;28;20239;-77
2022/05/12 05:16:28;;;;;;;9.60;9.30;;;18.20;99.90;;;;;;4998824;28;20291;-78
2022/05/12 05:18:56;;;;;;;9.50;9.20;;;18.20;99.90;;;;;;4999074;28;20284;-77
2022/05/12 05:21:24;;;;;;;9.65;9.35;;;18.30;99.90;;;;;;4997875;28;20233;-77
2022/05/12 05:23:51;;;;;;;10.00;9.70;;;18.40;99.90;;;;;;4997875;28;20284;-76
2022/05/12 05:26:19;;;;;;;10.35;10.05;;;18.50;99.90;;;;;;4997480;28;20225;-77
2022/05/12 05:28:47;;;;;;;10.23;9.93;;;18.50;99.90;;;;;;4998511;28;20236;-77
2022/05/12 05:31:16;;;;;;;9.65;9.35;;;18.70;99.90;;;;;;4997874;28;20296;-77
2022/05/12 05:33:45;;;;;;;9.60;9.30;;;18.70;99.90;;;;;;4998341;28;20344;-77
2022/05/12 05:36:13;;;;;;;10.00;9.70;;;18.80;99.90;;;;;;4997852;28;20315;-77
2022/05/12 05:38:41;;;;;;;9.95;9.65;;;18.90;99.90;;;;;;4998536;28;20237;-76
2022/05/12 05:41:09;;;;;;;10.30;10.00;;;18.90;99.90;;;;;;4998523;28;20232;-77
2022/05/12 05:43:38;;;;;;;10.55;10.25;;;19.10;99.90;;;;;;4996641;28;20276;-77
2022/05/12 05:46:06;;;;;;;9.60;9.30;;;19.10;99.90;;;;;;4996726;28;20723;-77
2022/05/12 05:48:34;;;;;;;9.73;9.43;;;19.10;99.90;;;;;;4996737;28;20236;-76
2022/05/12 05:53:48;;;;;;;10.00;9.70;;;19.10;99.90;;;;;;4996853;28;20237;-78
2022/05/12 05:56:17;;;;;;;9.93;9.63;;;19.10;99.90;;;;;;4996511;28;20295;-77
2022/05/12 05:58:45;;;;;;;9.88;9.57;;;19.10;99.90;;;;;;4997199;28;20249;-79
2022/05/12 06:01:15;;;;;;;9.98;9.68;;;19.10;99.90;;;;;;4996545;28;20262;-76
2022/05/12 06:03:42;;;;;;;10.25;9.95;;;19.20;99.90;;;;;;4996403;28;20236;-76
2022/05/12 06:06:11;;;;;;;10.32;10.02;;;19.20;99.90;;;;;;4996050;28;20254;-76
2022/05/12 06:08:39;;;;;;;10.60;10.30;;;19.30;99.90;;;;;;4997522;28;20232;-76
2022/05/12 06:11:08;;;;;;;10.70;10.40;;;19.50;99.90;;;;;;4996427;28;20248;-76
2022/05/12 06:13:36;;;;;;;10.93;10.63;;;19.50;99.90;;;;;;4996371;28;20233;-76
2022/05/12 06:16:05;;;;;;;10.70;10.40;;;19.60;99.90;;;;;;4995548;28;20235;-76
2022/05/12 06:18:36;;;;;;;10.77;10.48;;;19.50;99.90;;;;;;4996592;28;20243;-76
2022/05/12 06:21:05;;;;;;;11.23;10.93;;;19.60;99.90;;;;;;4996650;28;20271;-76
2022/05/12 06:23:34;;;;;;;10.63;10.32;;;19.60;99.90;;;;;;4996565;28;20804;-77
2022/05/12 06:26:03;;;;;;;10.68;10.38;;;19.70;99.90;;;;;;4995474;28;20272;-77
2022/05/12 06:28:30;;;;;;;11.07;10.77;;;19.80;99.90;;;;;;4996902;28;20236;-77
2022/05/12 06:30:58;;;;;;;11.00;10.70;;;19.80;99.90;;;;;;4996881;28;20236;-78
2022/05/12 06:33:25;;;;;;;10.75;10.45;;;19.80;99.90;;;;;;4998974;28;20237;-77
2022/05/12 06:35:56;;;;;;;10.40;10.10;;;19.90;99.90;;;;;;5001156;28;20232;-79
2022/05/12 06:38:25;;;;;;;10.50;10.20;;;19.90;99.90;;;;;;5000586;28;20260;-80
2022/05/12 06:40:55;;;;;;;10.70;10.40;;;20.00;99.90;;;;;;4998857;28;20280;-79
2022/05/12 06:43:23;;;;;;;10.70;10.40;;;20.10;99.90;;;;;;5000154;28;20233;-79
2022/05/12 06:45:51;;;;;;;10.90;10.60;;;20.00;99.90;;;;;;4999491;28;20323;-79
2022/05/12 06:48:20;;;;;;;10.65;10.35;;;20.00;99.90;;;;;;4999506;28;20237;-78
2022/05/12 06:50:48;;;;;;;10.50;10.20;;;19.90;99.90;;;;;;5000090;28;20312;-81
2022/05/12 06:53:16;;;;;;;11.05;10.75;;;20.00;99.90;;;;;;4999437;28;20272;-80
2022/05/12 06:55:44;;;;;;;11.00;10.70;;;20.00;99.90;;;;;;4999557;28;20260;-81
2022/05/12 06:58:17;;;;;;;10.77;10.48;;;20.00;99.90;;;;;;4999676;28;20295;-81
2022/05/12 07:00:45;;;;;;;10.50;10.20;;;19.90;99.90;;;;;;4999819;28;20946;-80
2022/05/12 07:03:13;;;;;;;10.30;10.00;;;19.90;99.90;;;;;;4999579;28;20233;-80
2022/05/12 07:05:41;;;;;;;10.43;10.13;;;19.90;99.90;;;;;;4999472;28;20263;-79
2022/05/12 07:08:10;;;;;;;10.27;9.98;;;19.80;99.90;;;;;;5000499;28;20308;-79
2022/05/12 07:10:38;;;;;;;10.20;9.90;;;19.80;99.90;;;;;;5001941;28;20228;-80
2022/05/12 07:13:07;;;;;;;10.00;9.70;;;19.90;99.90;;;;;;5000931;28;20291;-80
2022/05/12 07:15:38;;;;;;;10.40;10.10;;;20.00;99.90;;;;;;5000925;28;20229;-80
2022/05/12 07:18:06;;;;;;;10.50;10.20;;;20.10;99.90;;;;;;4999889;28;20244;-80
2022/05/12 07:31:21;;;;;;;10.00;9.70;;;20.20;99.90;;;;;;5042023;23;20239;-80
2022/05/12 07:33:49;;;;;;;9.90;9.60;;;20.10;99.90;;;;;;5022956;28;20228;-81
2022/05/12 07:36:19;;;;;;;9.63;9.32;;;20.20;99.90;;;;;;5023015;28;20236;-81
2022/05/12 07:38:47;;;;;;;9.80;9.50;;;20.10;99.90;;;;;;5032897;28;20228;-80
2022/05/12 07:41:16;;;;;;;9.48;9.18;;;20.10;99.90;;;;;;5024319;28;20235;-80
2022/05/12 07:43:46;;;;;;;10.32;10.02;;;20.20;99.90;;;;;;5022378;28;20323;-80
2022/05/12 07:46:16;;;;;;;10.48;10.18;;;20.20;99.90;;;;;;5021999;28;20232;-80
2022/05/12 07:48:46;;;;;;;10.43;10.13;;;20.20;99.90;;;;;;5022108;28;20275;-81
2022/05/12 07:51:14;;;;;;;10.30;10.00;;;20.30;99.90;;;;;;5020851;28;20235;-80
2022/05/12 07:53:47;;;;;;;10.57;10.27;;;20.40;99.90;;;;;;5021046;28;20242;-80
2022/05/12 07:56:16;;;;;;;10.80;10.50;;;20.50;99.90;;;;;;5020400;28;20231;-80
2022/05/12 07:58:45;;;;;;;10.30;10.00;;;20.60;99.90;;;;;;5021841;28;20228;-81
2022/05/12 08:01:14;;;;;;;10.30;10.00;;;20.70;99.90;;;;;;5014069;28;20240;-79
2022/05/12 08:03:41;;;;;;;10.23;9.93;;;20.80;99.90;;;;;;5013076;28;20251;-80
2022/05/12 08:06:12;;;;;;;10.10;9.80;;;20.80;99.90;;;;;;5021048;28;20323;-80
2022/05/12 08:08:40;;;;;;;10.20;9.90;;;20.80;99.90;;;;;;5020651;28;20236;-81
2022/05/12 08:11:10;;;;;;;10.48;10.18;;;20.80;99.90;;;;;;5020329;28;20235;-80
2022/05/12 08:13:39;;;;;;;10.20;9.90;;;20.80;99.90;;;;;;5020506;28;20228;-78
2022/05/12 08:16:08;;;;;;;10.30;10.00;;;20.80;99.90;;;;;;5020602;28;20327;-80
2022/05/12 08:18:37;;;;;;;10.23;9.93;;;20.60;99.90;;;;;;5021470;28;20225;-80
2022/05/12 08:21:08;;;;;;;10.50;10.20;;;20.70;99.90;;;;;;5019707;28;20332;-78
2022/05/12 08:23:48;;;;;;;10.60;10.30;;;20.70;99.90;;;;;;5000619;28;20217;-78
2022/05/12 08:26:17;;;;;;;10.90;10.60;;;20.70;99.90;;;;;;5026368;28;20235;-79
2022/05/12 08:28:47;;;;;;;10.73;10.43;;;20.60;99.90;;;;;;5022367;28;20243;-79
2022/05/12 08:31:15;;;;;;;10.98;10.68;;;20.60;99.90;;;;;;5020939;28;20292;-79
2022/05/12 08:33:43;;;;;;;10.50;10.20;;;20.70;99.90;;;;;;5020879;28;20232;-79
2022/05/12 08:36:13;;;;;;;10.70;10.40;;;20.80;99.90;;;;;;5020183;28;20290;-79
2022/05/12 08:38:51;;;;;;;10.40;10.10;;;20.90;99.90;;;;;;5019998;28;20268;-78
2022/05/12 08:41:30;;;;;;;10.52;10.23;;;21.10;99.90;;;;;;5020310;28;20231;-79
2022/05/12 08:44:01;;;;;;;10.07;9.77;;;21.10;99.90;;;;;;5023651;28;20236;-79
2022/05/12 08:46:45;;;;;;;10.30;10.00;;;21.30;99.90;;;;;;5024170;28;20272;-79
2022/05/12 08:49:24;;;;;;;10.23;9.93;;;21.40;99.90;;;;;;5022981;28;20232;-77
2022/05/12 08:51:56;;;;;;;9.80;9.50;;;21.20;99.90;;;;;;5022746;28;20239;-77
2022/05/12 08:54:31;;;;;;;10.20;9.90;;;21.30;99.90;;;;;;5023467;28;20252;-77
2022/05/12 08:57:09;;;;;;;10.50;10.20;;;21.20;99.90;;;;;;5020980;28;20294;-77
2022/05/12 08:59:40;;;;;;;10.40;10.10;;;21.30;99.90;;;;;;5021187;28;20236;-78
2022/05/12 09:02:29;;;;;;;10.40;10.10;;;21.50;99.90;;;;;;5021645;28;20236;-79
2022/05/12 09:05:06;;;;;;;10.63;10.32;;;21.60;99.90;;;;;;5022020;28;20252;-76
2022/05/12 09:07:43;;;;;;;10.40;10.10;;;21.60;99.90;;;;;;5021679;28;20295;-79
2022/05/12 09:10:41;;;;;;;11.02;10.73;;;21.80;99.90;;;;;;5021087;28;20240;-79
2022/05/12 09:13:25;;;;;;;10.70;10.40;;;21.90;99.90;;;;;;5019548;28;20319;-78
2022/05/12 09:16:06;;;;;;;10.50;10.20;;;22.10;99.90;;;;;;5012110;28;20315;-80
2022/05/12 09:18:36;;;;;;;10.40;10.10;;;22.30;99.90;;;;;;5017383;28;20232;-80
2022/05/12 09:21:11;;;;;;;10.27;9.98;;;22.40;99.90;;;;;;5023180;28;20244;-79
2022/05/12 09:23:40;;;;;;;10.65;10.35;;;22.40;99.90;;;;;;5023260;28;20283;-79
2022/05/12 09:26:46;;;;;;;10.68;10.38;;;21.90;99.90;;;;;;5023032;28;20208;-79
2022/05/12 09:29:23;;;;;;;10.60;10.30;;;21.90;99.90;;;;;;5023110;28;20228;-81
2022/05/12 09:31:53;;;;;;;10.68;10.38;;;22.10;99.90;;;;;;5024303;28;20298;-80
2022/05/12 09:34:32;;;;;;;10.30;10.00;;;22.20;99.90;;;;;;5023960;28;20244;-79
2022/05/12 09:37:21;;;;;;;10.25;9.95;;;22.10;99.90;;;;;;5021957;28;20251;-79
2022/05/12 09:39:51;;;;;;;10.38;10.07;;;22.10;99.90;;;;;;5023430;28;20239;-80
2022/05/12 09:42:45;;;;;;;10.02;9.73;;;22.20;99.90;;;;;;5034490;28;20255;-79
2022/05/12 09:45:27;;;;;;;10.40;10.10;;;22.10;99.90;;;;;;5021958;28;20223;-80
2022/05/12 09:48:21;;;;;;;10.70;10.40;;;22.40;99.90;;;;;;5035736;28;20220;-81
2022/05/12 09:50:50;;;;;;;10.43;10.13;;;22.80;99.90;;;;;;5028903;28;20240;-80
2022/05/12 09:53:29;;;;;;;10.80;10.50;;;23.00;99.90;;;;;;5028994;28;20232;-81
2022/05/12 09:56:05;;;;;;;10.68;10.38;;;22.90;99.90;;;;;;5029412;28;20267;-81
2022/05/12 09:58:45;;;;;;;10.40;10.10;;;23.00;99.90;;;;;;5026337;28;20219;-81
2022/05/12 10:01:22;;;;;;;10.38;10.07;;;23.20;99.90;;;;;;5027338;28;20259;-80
2022/05/12 10:12:22;;;;;;;10.07;9.77;;;23.70;99.90;;;;;;5035553;28;20219;-80
2022/05/12 10:14:59;;;;;;;9.93;9.63;;;23.30;99.90;;;;;;5038378;28;20238;-79
2022/05/12 10:17:39;;;;;;;9.95;9.65;;;23.10;99.90;;;;;;5028249;28;20247;-79
2022/05/12 10:20:18;;;;;;;10.43;10.13;;;23.00;99.90;;;;;;5023873;28;20318;-79
2022/05/12 10:22:54;;;;;;;10.40;10.10;;;23.30;99.90;;;;;;5023913;28;20231;-79
2022/05/12 10:25:42;;;;;;;10.30;10.00;;;23.30;99.90;;;;;;5024911;28;20287;-80
2022/05/12 10:28:21;;;;;;;10.40;10.10;;;23.20;99.90;;;;;;5024391;28;20236;-79
2022/05/12 10:31:00;;;;;;;10.15;9.85;;;23.20;99.90;;;;;;5023286;28;20263;-79
2022/05/12 10:33:46;;;;;;;10.40;10.10;;;23.20;99.90;;;;;;5023651;28;20235;-80
2022/05/12 10:36:31;;;;;;;10.18;9.88;;;23.10;99.90;;;;;;5022954;28;20251;-79
2022/05/12 10:39:12;;;;;;;9.70;9.40;;;22.80;99.90;;;;;;5022119;28;20232;-79
2022/05/12 10:41:57;;;;;;;10.10;9.80;;;22.70;99.90;;;;;;5011607;28;20229;-79
2022/05/12 10:45:01;;;;;;;10.00;9.70;;;22.60;99.90;;;;;;5003041;28;20228;-79
2022/05/12 10:47:49;;;;;;;10.00;9.70;;;22.60;99.90;;;;;;5002848;28;20232;-80
2022/05/12 10:50:27;;;;;;;9.98;9.68;;;22.60;99.90;;;;;;5002249;28;20237;-79
2022/05/12 10:53:14;;;;;;;9.77;9.48;;;22.60;99.90;;;;;;5002814;28;20225;-79
2022/05/12 10:55:54;;;;;;;9.57;9.27;;;22.60;99.90;;;;;;5002805;28;20303;-80
2022/05/12 10:58:31;;;;;;;9.75;9.45;;;22.60;99.90;;;;;;5003534;28;20237;-80
2022/05/12 11:01:17;;;;;;;9.90;9.60;;;22.70;99.90;;;;;;5002985;28;20260;-78
2022/05/12 11:04:13;;;;;;;9.88;9.57;;;22.90;99.90;;;;;;5008061;28;20220;-77
2022/05/12 11:06:51;;;;;;;9.93;9.63;;;23.20;99.90;;;;;;5015472;28;20244;-78
2022/05/12 11:09:24;;;;;;;10.02;9.73;;;23.20;99.90;;;;;;5015339;28;20323;-78
2022/05/12 11:11:59;;;;;;;10.32;10.02;;;23.00;99.90;;;;;;5001770;28;20234;-78
2022/05/12 11:14:37;;;;;;;10.27;9.98;;;23.00;99.90;;;;;;5003452;28;20271;-79
2022/05/12 11:17:19;;;;;;;10.75;10.45;;;23.60;99.90;;;;;;5002574;28;20244;-79
2022/05/12 11:20:08;;;;;;;10.18;9.88;;;23.70;99.90;;;;;;5007604;28;20241;-78
2022/05/12 11:22:49;;;;;;;10.20;9.90;;;23.80;99.90;;;;;;5006073;28;20315;-79
2022/05/12 11:25:29;;;;;;;10.40;10.10;;;23.90;99.90;;;;;;5020917;28;20224;-78
2022/05/12 11:31:10;;;;;;;10.15;9.85;;;24.00;99.90;;;;;;5020331;28;20232;-78
2022/05/12 11:33:40;;;;;;;9.88;9.57;;;24.40;99.90;;;;;;5020798;28;20235;-78
2022/05/12 11:36:17;;;;;;;10.10;9.80;;;24.50;99.90;;;;;;5020471;28;20252;-79
2022/05/12 11:39:01;;;;;;;9.88;9.57;;;24.10;99.90;;;;;;5020899;28;20294;-79
2022/05/12 11:41:45;;;;;;;10.13;9.82;;;24.40;99.90;;;;;;5021011;28;20259;-78
2022/05/12 11:44:42;;;;;;;10.38;10.07;;;24.40;99.90;;;;;;5020003;28;20334;-79
2022/05/12 11:47:54;;;;;;;10.30;10.00;;;24.40;99.90;;;;;;5019883;28;20220;-79
2022/05/12 11:51:09;;;;;;;10.20;9.90;;;24.80;99.90;;;;;;5019790;28;20243;-78
2022/05/12 11:53:57;;;;;;;10.27;9.98;;;25.30;99.90;;;;;;5019939;28;20228;-79
2022/05/12 11:56:50;;;;;;;10.40;10.10;;;25.50;99.90;;;;;;5019489;28;20263;-79
2022/05/12 11:59:46;;;;;;;10.50;10.20;;;25.40;99.90;;;;;;5019861;28;20291;-79
2022/05/12 12:02:51;;;;;;;10.00;9.70;;;25.30;99.90;;;;;;4986167;28;20295;-79
2022/05/12 12:06:04;;;;;;;10.15;9.85;;;25.20;99.90;;;;;;5018893;28;20234;-79
2022/05/12 12:08:54;;;;;;;9.90;9.60;;;25.20;99.90;;;;;;4999434;28;20302;-79
2022/05/12 12:11:27;;;;;;;10.30;10.00;;;25.30;99.90;;;;;;5020345;28;20287;-79
2022/05/12 12:14:00;;;;;;;9.80;9.50;;;25.70;99.90;;;;;;5019713;28;20228;-78
2022/05/12 12:16:38;;;;;;;9.40;9.10;;;26.00;99.90;;;;;;5021958;28;20239;-79
2022/05/12 12:19:08;;;;;;;9.70;9.40;;;25.90;99.90;;;;;;5024709;28;20223;-79
2022/05/12 12:22:25;;;;;;;10.40;10.10;;;25.10;99.90;;;;;;5023974;28;20291;-79
2022/05/12 12:25:45;;;;;;;10.23;9.93;;;24.80;99.90;;;;;;5026488;28;20239;-79
2022/05/12 12:28:49;;;;;;;9.80;9.50;;;25.10;99.90;;;;;;5007269;28;20236;-79
2022/05/12 12:31:26;;;;;;;9.55;9.25;;;25.60;99.90;;;;;;5004729;28;20299;-79
2022/05/12 12:34:14;;;;;;;9.60;9.30;;;26.20;99.90;;;;;;5005839;28;20216;-78
2022/05/12 12:37:01;;;;;;;9.43;9.13;;;26.30;99.90;;;;;;5004943;28;20292;-79
2022/05/12 12:39:46;;;;;;;9.52;9.23;;;26.10;99.90;;;;;;5007829;28;20244;-79
2022/05/12 12:42:39;;;;;;;9.90;9.60;;;25.90;99.90;;;;;;5008895;28;20229;-78
2022/05/12 12:45:13;;;;;;;10.50;10.20;;;25.30;99.90;;;;;;5009754;28;20221;-79
2022/05/12 12:47:59;;;;;;;10.10;9.80;;;25.30;99.90;;;;;;5028099;28;20231;-79
2022/05/12 12:50:55;;;;;;;10.30;10.00;;;25.00;99.90;;;;;;5027143;28;20260;-79
2022/05/12 12:56:38;;;;;;;10.18;9.88;;;25.70;99.90;;;;;;5028771;28;20232;-79
2022/05/12 12:59:15;;;;;;;10.30;10.00;;;25.80;99.90;;;;;;5031167;28;20232;-79
2022/05/12 13:01:56;;;;;;;10.02;9.73;;;26.20;99.90;;;;;;5035737;28;20236;-78
2022/05/12 13:04:32;;;;;;;10.20;9.90;;;26.30;99.90;;;;;;5041055;28;20215;-80
2022/05/12 13:07:13;;;;;;;10.10;9.80;;;26.30;99.90;;;;;;5041238;28;20220;-80
2022/05/12 13:09:48;;;;;;;10.20;9.90;;;26.60;99.90;;;;;;5040126;28;20279;-81
2022/05/12 13:12:20;;;;;;;10.30;10.00;;;26.60;99.90;;;;;;5038592;28;20236;-81
2022/05/12 13:14:58;;;;;;;10.40;10.10;;;27.00;99.90;;;;;;5028471;28;20221;-80
2022/05/12 13:17:37;;;;;;;10.10;9.80;;;27.20;99.90;;;;;;5020320;28;20216;-80
2022/05/12 13:20:13;;;;;;;9.35;9.05;;;27.20;99.90;;;;;;5021089;28;20243;-81
2022/05/12 13:22:50;;;;;;;9.60;9.30;;;27.00;99.90;;;;;;5021465;28;20324;-79
2022/05/12 13:25:29;;;;;;;9.70;9.40;;;26.70;99.90;;;;;;5012369;28;20252;-81
2022/05/12 13:27:58;;;;;;;9.90;9.60;;;26.20;99.90;;;;;;5004204;28;20220;-80
2022/05/12 13:30:36;;;;;;;9.80;9.50;;;25.90;99.90;;;;;;5024442;23;20261;-80
2022/05/12 13:33:10;;;;;;;9.75;9.45;;;25.80;99.90;;;;;;5000817;28;20232;-78
2022/05/12 13:35:39;;;;;;;10.20;9.90;;;26.10;99.90;;;;;;5001338;28;20232;-79
2022/05/12 13:38:13;;;;;;;10.23;9.93;;;26.70;99.90;;;;;;5017447;28;20241;-80
2022/05/12 13:40:46;;;;;;;10.52;10.23;;;26.70;99.90;;;;;;5016528;28;20260;-79
2022/05/12 13:43:25;;;;;;;10.40;10.10;;;26.90;99.90;;;;;;5003504;28;20709;-80
2022/05/12 13:46:21;;;;;;;10.43;10.13;;;27.10;99.90;;;;;;5002931;28;20225;-80
2022/05/12 13:48:57;;;;;;;10.50;10.20;;;27.20;99.90;;;;;;5002415;28;20252;-79